Time;durP1;ratioP1;P1;durP2;ratioP2;P2;SDS_P1;SDS_P2;PMS_P1;PMS_P2;Temp;Humidity;BMP_temperature;BMP_pressure;BME280_temperature;BME280_humidity;BME280_pressure;Samples;Min_cycle;Max_cycle;Signal;HPM_P1;HPM_P2
2023/03/19 00:02:11;;;;;;;10.38;5.90;;;;;;;;;;7387194;19;19999;-73
2023/03/19 00:04:36;;;;;;;14.35;6.70;;;;;;;;;;7393608;19;20467;-74
2023/03/19 00:07:02;;;;;;;13.85;6.00;;;;;;;;;;7394543;19;20305;-74
2023/03/19 00:09:28;;;;;;;14.55;6.05;;;;;;;;;;7394244;19;20546;-74
2023/03/19 00:11:53;;;;;;;12.05;5.97;;;;;;;;;;7391247;19;20468;-74
2023/03/19 00:14:18;;;;;;;13.13;6.35;;;;;;;;;;7394288;19;20491;-75
2023/03/19 00:16:44;;;;;;;11.25;6.40;;;;;;;;;;7394006;19;20003;-73
2023/03/19 00:19:09;;;;;;;10.93;6.50;;;;;;;;;;7395934;19;20051;-74
2023/03/19 00:21:35;;;;;;;11.43;5.80;;;;;;;;;;7390987;19;20007;-75
2023/03/19 00:24:01;;;;;;;10.18;5.65;;;;;;;;;;7392296;19;20427;-73
2023/03/19 00:26:27;;;;;;;11.57;6.30;;;;;;;;;;7391901;19;20006;-73
2023/03/19 00:28:54;;;;;;;11.98;5.72;;;;;;;;;;7392992;19;20003;-75
2023/03/19 00:31:19;;;;;;;10.25;6.22;;;;;;;;;;7390987;19;20578;-74
2023/03/19 00:33:45;;;;;;;15.77;6.65;;;;;;;;;;7397978;19;19999;-73
2023/03/19 00:36:11;;;;;;;11.00;5.97;;;;;;;;;;7393340;19;20010;-75
2023/03/19 00:38:37;;;;;;;14.88;6.15;;;;;;;;;;7392918;19;20006;-74
2023/03/19 00:41:04;;;;;;;13.80;6.10;;;;;;;;;;7391184;19;20030;-73
2023/03/19 00:43:30;;;;;;;13.63;6.50;;;;;;;;;;7393013;19;20111;-74
2023/03/19 00:45:56;;;;;;;16.63;6.65;;;;;;;;;;7392844;19;20010;-73
2023/03/19 00:48:21;;;;;;;15.02;7.15;;;;;;;;;;7390595;19;20511;-75
2023/03/19 00:50:47;;;;;;;15.95;7.55;;;;;;;;;;7391028;19;19999;-74
2023/03/19 00:53:12;;;;;;;13.07;7.07;;;;;;;;;;7392322;19;20065;-72
2023/03/19 00:55:38;;;;;;;15.55;7.78;;;;;;;;;;7392193;19;20071;-74
2023/03/19 00:58:05;;;;;;;17.95;7.45;;;;;;;;;;7392227;19;20022;-74
2023/03/19 01:00:31;;;;;;;23.30;7.70;;;;;;;;;;7391716;19;20006;-74
2023/03/19 01:02:57;;;;;;;12.15;6.93;;;;;;;;;;7390327;19;20024;-73
2023/03/19 01:05:26;;;;;;;14.38;7.72;;;;;;;;;;7392362;19;20336;-73
2023/03/19 01:07:51;;;;;;;14.57;7.13;;;;;;;;;;7392557;19;20002;-73
2023/03/19 01:10:18;;;;;;;14.45;8.15;;;;;;;;;;7390490;19;20015;-74
2023/03/19 01:12:44;;;;;;;17.20;7.57;;;;;;;;;;7390282;19;19999;-74
2023/03/19 01:15:09;;;;;;;14.48;7.78;;;;;;;;;;7390527;19;20029;-75
2023/03/19 01:17:35;;;;;;;12.57;7.28;;;;;;;;;;7391719;19;20002;-73
2023/03/19 01:20:00;;;;;;;17.52;8.38;;;;;;;;;;7390742;19;20018;-73
2023/03/19 01:22:26;;;;;;;13.20;7.82;;;;;;;;;;7392349;19;19999;-72
2023/03/19 01:24:51;;;;;;;17.25;7.57;;;;;;;;;;7391159;19;20131;-74
2023/03/19 01:27:17;;;;;;;16.45;7.93;;;;;;;;;;7391375;19;20014;-74
2023/03/19 01:29:42;;;;;;;14.98;8.70;;;;;;;;;;7389319;19;19999;-73
2023/03/19 01:32:07;;;;;;;16.58;8.57;;;;;;;;;;7387965;19;20023;-73
2023/03/19 01:34:33;;;;;;;15.15;7.93;;;;;;;;;;7390755;19;20047;-74
2023/03/19 01:36:58;;;;;;;15.23;8.15;;;;;;;;;;7390937;19;20007;-74
2023/03/19 01:39:23;;;;;;;14.23;8.07;;;;;;;;;;7391032;19;19998;-73
2023/03/19 01:41:49;;;;;;;15.88;8.57;;;;;;;;;;7386314;19;20472;-74
2023/03/19 01:44:27;;;;;;;13.68;8.32;;;;;;;;;;7390584;19;20017;-74
2023/03/19 01:46:54;;;;;;;16.08;8.07;;;;;;;;;;7391526;19;20002;-74
2023/03/19 01:49:21;;;;;;;14.77;8.20;;;;;;;;;;7389873;19;20447;-74
2023/03/19 01:51:47;;;;;;;17.10;9.00;;;;;;;;;;7388649;19;20777;-74
2023/03/19 01:54:15;;;;;;;18.20;8.35;;;;;;;;;;7394679;19;20021;-74
2023/03/19 01:56:45;;;;;;;16.02;8.15;;;;;;;;;;7390118;19;20002;-73
2023/03/19 01:59:17;;;;;;;14.70;8.07;;;;;;;;;;7389787;19;20002;-73
2023/03/19 02:01:50;;;;;;;14.77;7.95;;;;;;;;;;7387733;19;20002;-74
2023/03/19 02:04:17;;;;;;;16.90;7.85;;;;;;;;;;7388470;19;20069;-74
2023/03/19 02:06:43;;;;;;;13.48;7.88;;;;;;;;;;7387600;19;20054;-72
2023/03/19 02:09:09;;;;;;;16.23;8.25;;;;;;;;;;7393717;19;20002;-74
2023/03/19 02:11:36;;;;;;;16.67;8.50;;;;;;;;;;7391057;19;20001;-74
2023/03/19 02:14:02;;;;;;;18.77;8.20;;;;;;;;;;7393846;19;20014;-73
2023/03/19 02:16:27;;;;;;;13.75;7.45;;;;;;;;;;7389407;19;20432;-74
2023/03/19 02:18:53;;;;;;;19.55;7.97;;;;;;;;;;7391104;19;20003;-74
2023/03/19 02:21:19;;;;;;;15.55;7.68;;;;;;;;;;7388086;19;20016;-74
2023/03/19 02:24:10;;;;;;;13.02;7.47;;;;;;;;;;7390925;19;20031;-74
2023/03/19 02:26:36;;;;;;;14.97;7.40;;;;;;;;;;7388093;19;20003;-74
2023/03/19 02:29:02;;;;;;;14.57;7.93;;;;;;;;;;7393543;19;20002;-74
2023/03/19 02:31:28;;;;;;;14.68;7.40;;;;;;;;;;7388099;19;20016;-74
2023/03/19 02:34:00;;;;;;;13.15;7.10;;;;;;;;;;7390093;19;20006;-74
2023/03/19 02:36:41;;;;;;;17.58;8.18;;;;;;;;;;7387991;19;20031;-74
2023/03/19 02:39:14;;;;;;;17.08;7.40;;;;;;;;;;7389674;19;20023;-74
2023/03/19 02:41:40;;;;;;;13.38;7.22;;;;;;;;;;7387249;19;20113;-74
2023/03/19 02:44:10;;;;;;;15.02;7.03;;;;;;;;;;7389971;19;20015;-74
2023/03/19 02:46:35;;;;;;;16.80;7.35;;;;;;;;;;7389756;19;20010;-74
2023/03/19 02:49:01;;;;;;;14.68;7.28;;;;;;;;;;7389553;19;20118;-73
2023/03/19 02:51:26;;;;;;;14.70;7.25;;;;;;;;;;7387260;19;19995;-74
2023/03/19 02:53:51;;;;;;;12.48;7.05;;;;;;;;;;7388959;19;20002;-74
2023/03/19 02:56:17;;;;;;;14.05;7.43;;;;;;;;;;7388710;19;20006;-73
2023/03/19 02:58:42;;;;;;;16.27;7.22;;;;;;;;;;7388581;19;20033;-74
2023/03/19 03:01:07;;;;;;;11.77;7.38;;;;;;;;;;7387076;19;20005;-75
2023/03/19 03:03:33;;;;;;;13.07;6.95;;;;;;;;;;7388268;19;19995;-74
2023/03/19 03:05:58;;;;;;;16.48;8.52;;;;;;;;;;7386420;19;20027;-73
2023/03/19 03:08:24;;;;;;;63.08;31.35;;;;;;;;;;7388284;19;20074;-72
2023/03/19 03:10:49;;;;;;;24.42;13.07;;;;;;;;;;7386625;19;19999;-76
2023/03/19 03:13:15;;;;;;;30.88;12.43;;;;;;;;;;7388257;19;20014;-74
2023/03/19 03:15:40;;;;;;;22.92;11.60;;;;;;;;;;7388607;19;20005;-74
2023/03/19 03:18:05;;;;;;;67.07;29.60;;;;;;;;;;7388219;19;20019;-73
2023/03/19 03:20:31;;;;;;;40.28;19.88;;;;;;;;;;7386631;19;20349;-73
2023/03/19 03:22:56;;;;;;;37.72;17.33;;;;;;;;;;7386292;19;20003;-74
2023/03/19 03:25:22;;;;;;;19.33;10.63;;;;;;;;;;7385374;19;20003;-74
2023/03/19 03:27:47;;;;;;;21.80;11.70;;;;;;;;;;7387373;19;19999;-74
2023/03/19 03:30:14;;;;;;;20.35;11.00;;;;;;;;;;7387209;19;20003;-74
2023/03/19 03:32:41;;;;;;;21.90;10.57;;;;;;;;;;7387511;19;20013;-73
2023/03/19 03:35:07;;;;;;;18.30;9.93;;;;;;;;;;7387222;19;20036;-73
2023/03/19 03:37:39;;;;;;;16.88;8.90;;;;;;;;;;7391826;19;20006;-71
2023/03/19 03:40:07;;;;;;;16.17;8.80;;;;;;;;;;7394674;19;19999;-74
2023/03/19 03:42:33;;;;;;;20.90;9.25;;;;;;;;;;7392269;19;20007;-74
2023/03/19 03:44:59;;;;;;;16.60;8.73;;;;;;;;;;7394594;19;19998;-74
2023/03/19 03:47:25;;;;;;;16.00;8.35;;;;;;;;;;7394598;19;20063;-74
2023/03/19 03:49:50;;;;;;;17.00;7.88;;;;;;;;;;7394658;19;20010;-74
2023/03/19 03:52:16;;;;;;;13.50;7.70;;;;;;;;;;7393776;19;20405;-73
2023/03/19 03:54:41;;;;;;;12.20;7.72;;;;;;;;;;7396750;19;20009;-73
2023/03/19 03:57:06;;;;;;;14.60;7.93;;;;;;;;;;7396544;19;19999;-73
2023/03/19 03:59:32;;;;;;;13.13;7.55;;;;;;;;;;7394621;19;20002;-74
2023/03/19 04:01:57;;;;;;;17.10;7.88;;;;;;;;;;7391660;19;20003;-73
2023/03/19 04:04:23;;;;;;;14.57;8.00;;;;;;;;;;7395243;19;20320;-74
2023/03/19 04:06:48;;;;;;;11.40;7.35;;;;;;;;;;7394401;19;19998;-73
2023/03/19 04:09:13;;;;;;;12.50;7.30;;;;;;;;;;7393443;19;20009;-74
2023/03/19 04:11:40;;;;;;;11.73;7.35;;;;;;;;;;7390717;19;20006;-74
2023/03/19 04:14:06;;;;;;;12.45;7.35;;;;;;;;;;7393402;19;20006;-73
2023/03/19 04:16:32;;;;;;;15.30;7.28;;;;;;;;;;7391503;19;20540;-73
2023/03/19 04:18:57;;;;;;;14.05;7.10;;;;;;;;;;7396376;19;19994;-74
2023/03/19 04:21:22;;;;;;;15.63;7.40;;;;;;;;;;7390633;19;20006;-74
2023/03/19 04:23:48;;;;;;;18.20;7.90;;;;;;;;;;7393208;19;20006;-74
2023/03/19 04:26:13;;;;;;;11.95;6.95;;;;;;;;;;7393773;19;20408;-74
2023/03/19 04:28:38;;;;;;;15.52;7.38;;;;;;;;;;7390861;19;20003;-74
2023/03/19 04:31:06;;;;;;;11.60;7.28;;;;;;;;;;7393356;19;19998;-74
2023/03/19 04:33:33;;;;;;;12.63;7.35;;;;;;;;;;7391240;19;20026;-74
2023/03/19 04:35:58;;;;;;;12.30;7.53;;;;;;;;;;7393429;19;20455;-74
2023/03/19 04:38:28;;;;;;;10.50;7.07;;;;;;;;;;7392845;19;20013;-74
2023/03/19 04:40:54;;;;;;;15.38;8.07;;;;;;;;;;7390953;19;20474;-79
2023/03/19 04:43:21;;;;;;;16.55;8.35;;;;;;;;;;7393771;19;20077;-78
2023/03/19 04:45:46;;;;;;;12.80;7.45;;;;;;;;;;7391637;19;20369;-80
2023/03/19 04:48:11;;;;;;;15.73;7.30;;;;;;;;;;7392996;19;20024;-78
2023/03/19 04:50:38;;;;;;;12.63;7.10;;;;;;;;;;7392039;19;20338;-78
2023/03/19 04:53:03;;;;;;;14.35;7.00;;;;;;;;;;7393052;19;20090;-78
2023/03/19 04:55:28;;;;;;;13.88;6.90;;;;;;;;;;7393658;19;20347;-77
2023/03/19 04:57:54;;;;;;;11.63;6.65;;;;;;;;;;7393072;19;19994;-77
2023/03/19 05:00:20;;;;;;;13.85;6.93;;;;;;;;;;7392034;19;20077;-77
2023/03/19 05:02:46;;;;;;;14.13;6.53;;;;;;;;;;7390827;19;20332;-76
2023/03/19 05:05:12;;;;;;;12.48;6.45;;;;;;;;;;7393141;19;20024;-77
2023/03/19 05:07:38;;;;;;;10.93;6.15;;;;;;;;;;7392563;19;19998;-76
2023/03/19 05:10:03;;;;;;;12.20;6.13;;;;;;;;;;7393982;19;20002;-77
2023/03/19 05:12:29;;;;;;;11.80;6.18;;;;;;;;;;7390270;19;19999;-76
2023/03/19 05:14:54;;;;;;;11.25;6.25;;;;;;;;;;7393297;19;19995;-77
2023/03/19 05:17:20;;;;;;;12.18;6.13;;;;;;;;;;7392818;19;20475;-78
2023/03/19 05:19:46;;;;;;;10.25;5.40;;;;;;;;;;7392498;19;20005;-79
2023/03/19 05:22:11;;;;;;;10.95;5.63;;;;;;;;;;7389836;19;20432;-76
2023/03/19 05:24:37;;;;;;;10.65;6.20;;;;;;;;;;7392499;19;19999;-77
2023/03/19 05:27:02;;;;;;;9.25;4.93;;;;;;;;;;7392111;19;20435;-77
2023/03/19 05:29:28;;;;;;;9.55;4.47;;;;;;;;;;7390900;19;20087;-78
2023/03/19 05:31:53;;;;;;;9.15;4.60;;;;;;;;;;7390535;19;19994;-78
2023/03/19 05:34:19;;;;;;;10.88;6.50;;;;;;;;;;7396698;19;20003;-78
2023/03/19 05:36:45;;;;;;;13.82;6.32;;;;;;;;;;7396476;19;19998;-78
2023/03/19 05:39:10;;;;;;;10.95;5.93;;;;;;;;;;7391968;19;20002;-78
2023/03/19 05:41:36;;;;;;;9.45;5.60;;;;;;;;;;7389879;19;19994;-78
2023/03/19 05:44:01;;;;;;;11.45;5.80;;;;;;;;;;7391701;19;19999;-78
2023/03/19 05:46:26;;;;;;;11.10;5.95;;;;;;;;;;7391910;19;20469;-78
2023/03/19 05:48:52;;;;;;;10.20;5.95;;;;;;;;;;7391734;19;19998;-80
2023/03/19 05:51:17;;;;;;;10.70;6.05;;;;;;;;;;7389678;19;20016;-79
2023/03/19 05:53:42;;;;;;;10.23;5.90;;;;;;;;;;7391907;19;19998;-78
2023/03/19 05:56:08;;;;;;;10.52;5.60;;;;;;;;;;7395833;19;19995;-78
2023/03/19 05:58:33;;;;;;;10.43;5.70;;;;;;;;;;7393061;19;19986;-79
2023/03/19 06:00:58;;;;;;;11.13;5.55;;;;;;;;;;7385998;19;20030;-78
2023/03/19 06:03:26;;;;;;;11.77;5.95;;;;;;;;;;7391069;19;20050;-79
2023/03/19 06:05:51;;;;;;;10.70;5.68;;;;;;;;;;7390891;19;19994;-79
2023/03/19 06:08:18;;;;;;;7.70;5.25;;;;;;;;;;7390926;19;20467;-77
2023/03/19 06:10:43;;;;;;;11.80;5.13;;;;;;;;;;7390254;19;19998;-78
2023/03/19 06:13:09;;;;;;;10.60;5.95;;;;;;;;;;7393503;19;20471;-78
2023/03/19 06:15:34;;;;;;;12.40;5.53;;;;;;;;;;7390422;19;20002;-77
2023/03/19 06:17:59;;;;;;;9.57;5.53;;;;;;;;;;7390034;19;20551;-78
2023/03/19 06:20:25;;;;;;;13.20;5.30;;;;;;;;;;7393351;19;19991;-78
2023/03/19 06:22:50;;;;;;;10.93;5.35;;;;;;;;;;7392718;19;20451;-79
2023/03/19 06:25:16;;;;;;;8.98;5.38;;;;;;;;;;7394014;19;19998;-78
2023/03/19 06:27:42;;;;;;;8.98;5.63;;;;;;;;;;7393393;19;20003;-79
2023/03/19 06:30:08;;;;;;;11.75;6.30;;;;;;;;;;7392391;19;20018;-78
2023/03/19 06:32:34;;;;;;;11.32;6.10;;;;;;;;;;7392224;19;19998;-78
2023/03/19 06:35:00;;;;;;;11.25;6.40;;;;;;;;;;7392926;19;20001;-80
2023/03/19 06:37:25;;;;;;;12.70;6.57;;;;;;;;;;7394443;19;20003;-77
2023/03/19 06:39:53;;;;;;;14.45;6.70;;;;;;;;;;7390109;19;20364;-78
2023/03/19 06:42:20;;;;;;;9.82;6.22;;;;;;;;;;7391819;19;20689;-77
2023/03/19 06:44:45;;;;;;;9.45;5.72;;;;;;;;;;7394260;19;20398;-77
2023/03/19 06:47:11;;;;;;;11.45;6.22;;;;;;;;;;7393325;19;19999;-78
2023/03/19 06:49:36;;;;;;;12.75;6.22;;;;;;;;;;7389732;19;20015;-80
2023/03/19 06:52:02;;;;;;;15.60;6.28;;;;;;;;;;7386132;19;20014;-83
2023/03/19 06:54:31;;;;;;;9.80;6.07;;;;;;;;;;7388940;19;20010;-77
2023/03/19 06:56:56;;;;;;;10.18;6.63;;;;;;;;;;7384061;19;20002;-77
2023/03/19 06:59:22;;;;;;;14.23;5.75;;;;;;;;;;7387859;19;20002;-77
2023/03/19 07:01:47;;;;;;;12.93;6.35;;;;;;;;;;7383619;19;20018;-77
2023/03/19 07:04:19;;;;;;;9.77;6.45;;;;;;;;;;7388709;19;20002;-77
2023/03/19 07:06:44;;;;;;;15.00;5.93;;;;;;;;;;7384193;19;20353;-76
2023/03/19 07:09:10;;;;;;;11.60;5.78;;;;;;;;;;7390296;19;20005;-83
2023/03/19 07:11:35;;;;;;;12.63;6.13;;;;;;;;;;7383277;19;20003;-78
2023/03/19 07:14:01;;;;;;;13.05;6.43;;;;;;;;;;7386245;19;20011;-77
2023/03/19 07:16:26;;;;;;;11.95;6.35;;;;;;;;;;7390767;19;20003;-76
2023/03/19 07:18:51;;;;;;;11.75;6.57;;;;;;;;;;7389910;19;20073;-79
2023/03/19 07:21:17;;;;;;;11.40;6.43;;;;;;;;;;7389453;19;20058;-77
2023/03/19 07:23:42;;;;;;;15.93;7.00;;;;;;;;;;7384401;19;20474;-77
2023/03/19 07:26:07;;;;;;;16.20;7.03;;;;;;;;;;7387739;19;20003;-77
2023/03/19 07:28:33;;;;;;;13.10;6.50;;;;;;;;;;7388822;19;19995;-78
2023/03/19 07:30:59;;;;;;;12.85;6.80;;;;;;;;;;7326235;19;20003;-79
2023/03/19 07:33:30;;;;;;;9.95;6.57;;;;;;;;;;7386859;19;19998;-79
2023/03/19 07:35:56;;;;;;;11.23;6.30;;;;;;;;;;7385256;19;21181;-76
2023/03/19 07:38:21;;;;;;;12.18;6.00;;;;;;;;;;7384931;19;20002;-77
2023/03/19 07:40:46;;;;;;;18.23;6.55;;;;;;;;;;7385374;19;20011;-76
2023/03/19 07:43:12;;;;;;;13.20;6.63;;;;;;;;;;7384623;19;20460;-77
2023/03/19 07:45:37;;;;;;;13.73;6.78;;;;;;;;;;7384763;19;20356;-79
2023/03/19 07:48:03;;;;;;;9.45;5.97;;;;;;;;;;7382977;19;19990;-79
2023/03/19 07:50:30;;;;;;;10.55;6.43;;;;;;;;;;7382679;19;20014;-78
2023/03/19 07:52:55;;;;;;;11.88;5.80;;;;;;;;;;7383231;19;20005;-76
2023/03/19 07:55:21;;;;;;;13.65;6.47;;;;;;;;;;7383382;19;19999;-71
2023/03/19 07:57:46;;;;;;;13.93;7.15;;;;;;;;;;7384860;19;20008;-74
2023/03/19 08:00:12;;;;;;;13.80;6.68;;;;;;;;;;7386490;19;20006;-71
2023/03/19 08:02:37;;;;;;;11.95;6.80;;;;;;;;;;7383470;19;20483;-77
2023/03/19 08:05:03;;;;;;;12.45;7.15;;;;;;;;;;7388101;19;19998;-77
2023/03/19 08:07:29;;;;;;;11.95;6.53;;;;;;;;;;7385048;19;20012;-78
2023/03/19 08:09:57;;;;;;;12.68;6.18;;;;;;;;;;7381653;19;20010;-78
2023/03/19 08:12:22;;;;;;;14.20;6.70;;;;;;;;;;7384211;19;20009;-77
2023/03/19 08:14:48;;;;;;;15.20;7.10;;;;;;;;;;7383786;19;20002;-78
2023/03/19 08:17:13;;;;;;;13.45;6.22;;;;;;;;;;7385799;19;20003;-77
2023/03/19 08:19:38;;;;;;;12.23;6.35;;;;;;;;;;7385155;19;20031;-78
2023/03/19 08:22:04;;;;;;;14.52;6.90;;;;;;;;;;7379915;19;20007;-79
2023/03/19 08:24:30;;;;;;;9.88;5.93;;;;;;;;;;7392734;19;20003;-87
2023/03/19 08:26:55;;;;;;;11.63;5.85;;;;;;;;;;7392612;19;20276;-89
2023/03/19 08:29:20;;;;;;;12.20;6.00;;;;;;;;;;7393853;19;20655;-84
2023/03/19 08:31:46;;;;;;;10.48;6.20;;;;;;;;;;7388808;19;20001;-82
2023/03/19 08:34:11;;;;;;;10.73;5.55;;;;;;;;;;7393052;19;20074;-81
2023/03/19 08:36:37;;;;;;;10.38;5.72;;;;;;;;;;7391670;19;19998;-78
2023/03/19 08:39:03;;;;;;;8.40;5.45;;;;;;;;;;7393819;19;19995;-80
2023/03/19 08:41:28;;;;;;;11.98;5.20;;;;;;;;;;7393900;19;20002;-79
2023/03/19 08:43:54;;;;;;;11.98;6.38;;;;;;;;;;7393734;19;20336;-82
2023/03/19 08:46:19;;;;;;;9.50;5.47;;;;;;;;;;7395136;19;20003;-79
2023/03/19 08:48:45;;;;;;;11.13;5.63;;;;;;;;;;7393994;19;19999;-81
2023/03/19 08:51:11;;;;;;;11.93;5.75;;;;;;;;;;7395548;19;20018;-81
2023/03/19 08:53:37;;;;;;;14.68;5.57;;;;;;;;;;7394373;19;20394;-81
2023/03/19 08:56:06;;;;;;;11.60;5.55;;;;;;;;;;7395647;19;19991;-81
2023/03/19 08:58:32;;;;;;;10.65;5.75;;;;;;;;;;7392594;19;20006;-79
2023/03/19 09:01:05;;;;;;;14.50;5.80;;;;;;;;;;7392270;19;20020;-82
2023/03/19 09:03:31;;;;;;;11.15;5.57;;;;;;;;;;7390480;19;20428;-77
2023/03/19 09:06:01;;;;;;;12.00;6.03;;;;;;;;;;7389223;19;19999;-77
2023/03/19 09:08:27;;;;;;;10.27;4.90;;;;;;;;;;7392822;19;20125;-78
2023/03/19 09:10:53;;;;;;;9.05;5.22;;;;;;;;;;7389058;19;20002;-78
2023/03/19 09:13:19;;;;;;;8.07;4.88;;;;;;;;;;7391920;19;20361;-77
2023/03/19 09:15:44;;;;;;;9.10;4.43;;;;;;;;;;7390201;19;20022;-76
2023/03/19 09:18:10;;;;;;;9.55;4.93;;;;;;;;;;7389430;19;19991;-76
2023/03/19 09:20:36;;;;;;;9.68;4.82;;;;;;;;;;7387608;19;19995;-77
2023/03/19 09:23:01;;;;;;;9.15;4.07;;;;;;;;;;7388679;19;20006;-78
2023/03/19 09:25:26;;;;;;;8.30;4.68;;;;;;;;;;7388880;19;20001;-76
2023/03/19 09:27:52;;;;;;;8.05;4.43;;;;;;;;;;7389290;19;20082;-77
2023/03/19 09:30:17;;;;;;;9.32;4.55;;;;;;;;;;7389026;19;20066;-78
2023/03/19 09:32:42;;;;;;;9.75;4.82;;;;;;;;;;7389265;19;20075;-78
2023/03/19 09:35:08;;;;;;;6.68;4.28;;;;;;;;;;7386581;19;20334;-76
2023/03/19 09:37:34;;;;;;;6.60;4.20;;;;;;;;;;7390950;19;20738;-77
2023/03/19 09:39:59;;;;;;;8.20;4.50;;;;;;;;;;7388588;19;20016;-77
2023/03/19 09:42:57;;;;;;;8.95;4.30;;;;;;;;;;7388319;19;19995;-77
2023/03/19 09:45:23;;;;;;;8.07;4.68;;;;;;;;;;7392384;19;20017;-78
2023/03/19 09:47:54;;;;;;;10.95;4.68;;;;;;;;;;7392555;19;19994;-77
2023/03/19 09:50:23;;;;;;;8.73;5.10;;;;;;;;;;7392195;19;20425;-77
2023/03/19 09:52:55;;;;;;;10.15;5.30;;;;;;;;;;7390689;19;19995;-77
2023/03/19 09:55:23;;;;;;;6.53;4.57;;;;;;;;;;7392219;19;20019;-78
2023/03/19 09:57:52;;;;;;;9.07;4.75;;;;;;;;;;7388823;19;20349;-70
2023/03/19 10:00:21;;;;;;;8.93;4.47;;;;;;;;;;7387618;19;20007;-76
2023/03/19 10:03:11;;;;;;;7.15;4.47;;;;;;;;;;7389285;19;20049;-74
2023/03/19 10:06:04;;;;;;;7.95;4.68;;;;;;;;;;7386142;19;20078;-70
2023/03/19 10:08:40;;;;;;;8.98;4.00;;;;;;;;;;7389689;19;20409;-73
2023/03/19 10:11:37;;;;;;;7.60;4.13;;;;;;;;;;7386993;19;20006;-71
2023/03/19 10:14:33;;;;;;;8.27;4.03;;;;;;;;;;7386398;19;20371;-70
2023/03/19 10:17:03;;;;;;;7.65;4.35;;;;;;;;;;7389041;19;20002;-70
2023/03/19 10:19:39;;;;;;;18.00;4.30;;;;;;;;;;7389143;19;20095;-70
2023/03/19 10:22:11;;;;;;;6.28;3.90;;;;;;;;;;7388168;19;20023;-77
2023/03/19 10:24:39;;;;;;;8.18;3.88;;;;;;;;;;7389371;19;20006;-76
2023/03/19 10:27:11;;;;;;;7.63;3.85;;;;;;;;;;7385831;19;20005;-77
2023/03/19 10:29:38;;;;;;;8.43;4.35;;;;;;;;;;7385410;19;20009;-75
2023/03/19 10:32:33;;;;;;;9.23;4.38;;;;;;;;;;7383455;19;20501;-75
2023/03/19 10:35:02;;;;;;;8.35;4.20;;;;;;;;;;7385467;19;20013;-75
2023/03/19 10:37:29;;;;;;;6.78;4.20;;;;;;;;;;7389758;19;20002;-76
2023/03/19 10:39:57;;;;;;;6.97;4.70;;;;;;;;;;7385234;19;20495;-76
2023/03/19 10:42:55;;;;;;;11.48;4.82;;;;;;;;;;7386031;19;20015;-72
2023/03/19 10:45:29;;;;;;;10.10;4.32;;;;;;;;;;7388112;19;20006;-72
2023/03/19 10:47:56;;;;;;;9.02;4.20;;;;;;;;;;7388933;19;19999;-72
2023/03/19 10:50:37;;;;;;;8.20;4.47;;;;;;;;;;7388112;19;20378;-71
2023/03/19 10:53:12;;;;;;;7.57;4.32;;;;;;;;;;7388488;19;20089;-72
2023/03/19 10:55:37;;;;;;;9.13;4.32;;;;;;;;;;7388029;19;20515;-72
2023/03/19 10:58:13;;;;;;;8.85;2.63;;;;;;;;;;7388350;19;20005;-72
2023/03/19 11:00:39;;;;;;;7.13;2.63;;;;;;;;;;7387456;19;20757;-72
2023/03/19 11:03:33;;;;;;;6.28;2.95;;;;;;;;;;7384662;19;19998;-72
2023/03/19 11:06:06;;;;;;;7.68;2.92;;;;;;;;;;7385753;19;20002;-72
2023/03/19 11:08:36;;;;;;;8.15;2.90;;;;;;;;;;7387700;19;20003;-72
2023/03/19 11:11:02;;;;;;;8.45;3.63;;;;;;;;;;7387430;19;20438;-71
2023/03/19 11:13:28;;;;;;;9.02;3.28;;;;;;;;;;7387685;19;20796;-71
2023/03/19 11:15:58;;;;;;;6.05;2.72;;;;;;;;;;7387457;19;20001;-71
2023/03/19 11:18:28;;;;;;;6.03;3.05;;;;;;;;;;7387718;19;20110;-70
2023/03/19 11:20:58;;;;;;;8.03;3.60;;;;;;;;;;7386510;19;20039;-72
2023/03/19 11:23:29;;;;;;;8.98;3.10;;;;;;;;;;7387778;19;19995;-71
2023/03/19 11:25:58;;;;;;;;;;;;;;;;;;7387967;19;20670;-71
2023/03/19 11:28:25;;;;;;;7.03;3.40;;;;;;;;;;7387961;19;19931;-71
2023/03/19 11:31:02;;;;;;;5.75;3.20;;;;;;;;;;7390726;19;20511;-72
2023/03/19 11:33:42;;;;;;;7.18;3.25;;;;;;;;;;7387421;19;20003;-71
2023/03/19 11:36:10;;;;;;;5.35;2.92;;;;;;;;;;7386932;19;19999;-72
2023/03/19 11:39:00;;;;;;;7.68;3.00;;;;;;;;;;7387197;19;20088;-72
2023/03/19 11:41:58;;;;;;;5.97;2.70;;;;;;;;;;7384502;19;20362;-72
2023/03/19 11:44:54;;;;;;;6.15;3.00;;;;;;;;;;7387208;19;20013;-71
2023/03/19 11:47:33;;;;;;;6.55;3.00;;;;;;;;;;7386904;19;19994;-71
2023/03/19 11:50:24;;;;;;;6.07;2.80;;;;;;;;;;7387013;19;19998;-72
2023/03/19 11:53:09;;;;;;;4.70;2.60;;;;;;;;;;7385083;19;20007;-72
2023/03/19 11:55:49;;;;;;;5.93;2.70;;;;;;;;;;7386616;19;19998;-72
2023/03/19 11:58:52;;;;;;;7.75;3.35;;;;;;;;;;7390210;19;20488;-71
2023/03/19 12:01:54;;;;;;;7.72;3.42;;;;;;;;;;7390223;19;19994;-72
2023/03/19 12:04:32;;;;;;;5.93;2.80;;;;;;;;;;7394151;19;20030;-72
2023/03/19 12:07:07;;;;;;;7.10;2.95;;;;;;;;;;7394584;19;20362;-72
2023/03/19 12:09:40;;;;;;;6.43;3.17;;;;;;;;;;7397736;19;20003;-71
2023/03/19 12:12:33;;;;;;;6.95;3.58;;;;;;;;;;7391486;19;19999;-71
2023/03/19 12:15:23;;;;;;;8.18;3.58;;;;;;;;;;7393281;19;20510;-73
2023/03/19 12:18:07;;;;;;;8.20;3.90;;;;;;;;;;7394143;19;20476;-71
2023/03/19 12:21:09;;;;;;;4.85;3.05;;;;;;;;;;7393401;19;20009;-71
2023/03/19 12:23:54;;;;;;;5.80;3.50;;;;;;;;;;7392149;19;20002;-72
2023/03/19 12:26:35;;;;;;;8.05;3.53;;;;;;;;;;7393507;19;19994;-71
2023/03/19 12:29:18;;;;;;;7.72;3.42;;;;;;;;;;7393411;19;19999;-72
2023/03/19 12:31:51;;;;;;;6.55;3.40;;;;;;;;;;7391178;19;20440;-71
2023/03/19 12:34:37;;;;;;;9.13;3.53;;;;;;;;;;7393287;19;20018;-72
2023/03/19 12:37:16;;;;;;;8.52;3.67;;;;;;;;;;7395728;19;20015;-72
2023/03/19 12:40:06;;;;;;;6.68;3.45;;;;;;;;;;7392980;19;20102;-72
2023/03/19 12:42:37;;;;;;;6.03;3.78;;;;;;;;;;7390594;19;20013;-72
2023/03/19 12:45:05;;;;;;;7.13;4.10;;;;;;;;;;7393257;19;19998;-71
2023/03/19 12:47:37;;;;;;;6.13;3.40;;;;;;;;;;7392595;19;19999;-72
2023/03/19 12:50:09;;;;;;;6.43;3.42;;;;;;;;;;7392145;19;20456;-72
2023/03/19 12:52:38;;;;;;;7.00;3.58;;;;;;;;;;7388723;19;20368;-72
2023/03/19 12:55:19;;;;;;;6.90;3.90;;;;;;;;;;7392604;19;20006;-72
2023/03/19 12:57:58;;;;;;;7.90;4.18;;;;;;;;;;7392427;19;20003;-71
2023/03/19 13:00:34;;;;;;;15.48;4.47;;;;;;;;;;7391494;19;20439;-71
2023/03/19 13:03:21;;;;;;;10.90;4.85;;;;;;;;;;7390118;19;19998;-71
2023/03/19 13:06:02;;;;;;;9.02;4.07;;;;;;;;;;7392159;19;20050;-71
2023/03/19 13:08:44;;;;;;;10.45;4.00;;;;;;;;;;7391341;19;20003;-71
2023/03/19 13:11:14;;;;;;;9.10;4.25;;;;;;;;;;7388429;19;20114;-71
2023/03/19 13:14:03;;;;;;;10.25;3.83;;;;;;;;;;7390067;19;20023;-71
2023/03/19 13:17:14;;;;;;;10.52;3.60;;;;;;;;;;7391723;19;20365;-71
2023/03/19 13:19:45;;;;;;;8.43;3.55;;;;;;;;;;7387269;19;19994;-71
2023/03/19 13:22:15;;;;;;;6.45;3.63;;;;;;;;;;7391293;19;19998;-70
2023/03/19 13:24:44;;;;;;;5.93;2.40;;;;;;;;;;7389768;19;20348;-70
2023/03/19 13:27:20;;;;;;;4.88;2.15;;;;;;;;;;7392974;19;19995;-69
2023/03/19 13:30:02;;;;;;;6.00;2.50;;;;;;;;;;7394753;19;20322;-70
2023/03/19 13:32:40;;;;;;;8.30;2.78;;;;;;;;;;7392112;19;20009;-70
2023/03/19 13:35:26;;;;;;;4.57;2.40;;;;;;;;;;7391617;19;20539;-71
2023/03/19 13:37:59;;;;;;;5.10;2.60;;;;;;;;;;7391646;19;19998;-71
2023/03/19 13:40:50;;;;;;;6.65;2.60;;;;;;;;;;7380173;19;20327;-70
2023/03/19 13:43:40;;;;;;;;;;;;;;;;;;7387458;19;20017;-71
2023/03/19 13:46:10;;;;;;;5.22;2.47;;;;;;;;;;7384338;19;19921;-73
2023/03/19 13:48:46;;;;;;;4.73;2.30;;;;;;;;;;7388344;19;20514;-71
2023/03/19 13:51:11;;;;;;;3.97;2.33;;;;;;;;;;7384936;19;20452;-73
2023/03/19 13:53:41;;;;;;;5.60;2.70;;;;;;;;;;7388616;19;20013;-72
2023/03/19 13:56:11;;;;;;;5.82;2.70;;;;;;;;;;7386269;19;20005;-72
2023/03/19 13:58:48;;;;;;;5.68;2.58;;;;;;;;;;7390575;19;20074;-72
2023/03/19 14:01:26;;;;;;;5.47;2.88;;;;;;;;;;7385767;19;20012;-73
2023/03/19 14:04:00;;;;;;;9.10;2.90;;;;;;;;;;7389233;19;20026;-73
2023/03/19 14:06:39;;;;;;;5.05;2.95;;;;;;;;;;7391149;19;20450;-73
2023/03/19 14:09:27;;;;;;;5.47;2.85;;;;;;;;;;7392277;19;20074;-75
2023/03/19 14:11:53;;;;;;;3.97;2.38;;;;;;;;;;7389945;19;19998;-72
2023/03/19 14:14:22;;;;;;;3.65;2.22;;;;;;;;;;7393012;19;20015;-74
2023/03/19 14:16:49;;;;;;;6.00;2.83;;;;;;;;;;7390717;19;20041;-72
2023/03/19 14:19:19;;;;;;;7.38;2.60;;;;;;;;;;7390366;19;20006;-71
2023/03/19 14:22:06;;;;;;;3.88;2.08;;;;;;;;;;7385891;19;20492;-72
2023/03/19 14:24:32;;;;;;;5.60;2.63;;;;;;;;;;7390470;19;20395;-71
2023/03/19 14:27:01;;;;;;;5.37;2.50;;;;;;;;;;7387302;19;20010;-73
2023/03/19 14:29:27;;;;;;;4.10;2.53;;;;;;;;;;7387069;19;20671;-73
2023/03/19 14:32:01;;;;;;;4.57;2.17;;;;;;;;;;7386309;19;19998;-74
2023/03/19 14:34:32;;;;;;;5.78;2.47;;;;;;;;;;7388708;19;20007;-75
2023/03/19 14:37:16;;;;;;;4.72;2.08;;;;;;;;;;7387991;19;20010;-74
2023/03/19 14:39:43;;;;;;;1.77;1.60;;;;;;;;;;7385961;19;20010;-73
2023/03/19 14:42:15;;;;;;;3.67;1.60;;;;;;;;;;7386404;19;20034;-74
2023/03/19 14:45:11;;;;;;;5.85;1.60;;;;;;;;;;7387179;19;20092;-74
2023/03/19 14:48:09;;;;;;;3.40;1.77;;;;;;;;;;7388555;19;20006;-74
2023/03/19 14:50:59;;;;;;;2.45;1.65;;;;;;;;;;7386914;19;20011;-72
2023/03/19 14:53:47;;;;;;;2.78;1.45;;;;;;;;;;7389283;19;20006;-72